Time;durP1;ratioP1;P1;durP2;ratioP2;P2;SDS_P1;SDS_P2;PMS_P1;PMS_P2;Temp;Humidity;BMP_temperature;BMP_pressure;BME280_temperature;BME280_humidity;BME280_pressure;Samples;Min_cycle;Max_cycle;Signal;HPM_P1;HPM_P2
2022/05/09 00:01:39;;;;;;;;;;;14.90;66.50;;;;;;5094602;28;19916;-79
2022/05/09 00:04:05;;;;;;;;;;;14.90;66.50;;;;;;5094636;28;19908;-77
2022/05/09 00:06:30;;;;;;;;;;;14.90;66.60;;;;;;5094921;28;20276;-77
2022/05/09 00:08:56;;;;;;;;;;;14.90;66.50;;;;;;5076436;28;19916;-80
2022/05/09 00:11:21;;;;;;;;;;;14.80;66.50;;;;;;5094725;28;19908;-78
2022/05/09 00:13:47;;;;;;;;;;;14.90;66.50;;;;;;5076365;28;20011;-80
2022/05/09 00:16:13;;;;;;;;;;;14.90;66.60;;;;;;5076599;28;20021;-78
2022/05/09 00:18:38;;;;;;;;;;;14.90;66.50;;;;;;5077082;28;19925;-77
2022/05/09 00:21:04;;;;;;;;;;;14.90;66.40;;;;;;5095529;28;20003;-77
2022/05/09 00:23:30;;;;;;;;;;;14.90;66.40;;;;;;5095993;28;20537;-78
2022/05/09 00:25:55;;;;;;;;;;;14.90;66.50;;;;;;5095949;28;19916;-76
2022/05/09 00:28:21;;;;;;;;;;;14.90;66.50;;;;;;5097572;28;19912;-77
2022/05/09 00:30:47;;;;;;;;;;;14.80;66.60;;;;;;5062422;28;20278;-78
2022/05/09 00:33:13;;;;;;;;;;;14.80;66.50;;;;;;5077288;28;19916;-77
2022/05/09 00:35:40;;;;;;;;;;;14.80;66.80;;;;;;5077767;28;19916;-77
2022/05/09 00:38:07;;;;;;;;;;;14.80;66.80;;;;;;5097204;28;19912;-77
2022/05/09 00:40:33;;;;;;;;;;;14.70;66.80;;;;;;5076896;28;20006;-77
2022/05/09 00:42:58;;;;;;;;;;;14.80;66.80;;;;;;5076588;28;20011;-78
2022/05/09 00:45:24;;;;;;;;;;;14.80;66.70;;;;;;5060390;28;19916;-78
2022/05/09 00:47:50;;;;;;;;;;;14.80;66.70;;;;;;5077532;28;19915;-76
2022/05/09 00:50:19;;;;;;;;;;;14.80;66.60;;;;;;5095478;28;19912;-78
2022/05/09 00:52:46;;;;;;;;;;;14.90;67.30;;;;;;5079063;28;19969;-77
2022/05/09 00:55:18;;;;;;;;;;;14.80;66.60;;;;;;5077143;28;19920;-78
2022/05/09 00:57:54;;;;;;;;;;;14.80;66.70;;;;;;5092158;28;19935;-77
2022/05/09 01:00:21;;;;;;;;;;;14.80;66.80;;;;;;5092892;28;19950;-79
2022/05/09 01:02:49;;;;;;;;;;;14.80;66.70;;;;;;5073566;28;19935;-78
2022/05/09 01:05:16;;;;;;;;;;;14.70;66.80;;;;;;5091491;28;19919;-76
2022/05/09 01:07:42;;;;;;;;;;;14.70;66.80;;;;;;5073460;28;19912;-76
2022/05/09 01:10:11;;;;;;;;;;;14.70;67.00;;;;;;5091214;28;19908;-78
2022/05/09 01:12:38;;;;;;;;;;;14.60;67.00;;;;;;5074018;28;19919;-76
2022/05/09 01:15:07;;;;;;;;;;;14.60;66.90;;;;;;5091404;28;19908;-77
2022/05/09 01:17:33;;;;;;;;;;;14.60;66.90;;;;;;5091754;28;19951;-78
2022/05/09 01:19:59;;;;;;;;;;;14.70;67.00;;;;;;5091289;28;19993;-77
2022/05/09 01:22:29;;;;;;;;;;;14.70;67.10;;;;;;5072750;28;19916;-78
2022/05/09 01:24:55;;;;;;;;;;;14.70;67.20;;;;;;5073340;28;19917;-76
2022/05/09 01:27:22;;;;;;;;;;;14.70;67.20;;;;;;5091707;28;19965;-76
2022/05/09 01:29:47;;;;;;;;;;;14.80;67.10;;;;;;5090596;28;19909;-78
2022/05/09 01:32:15;;;;;;;;;;;14.80;67.60;;;;;;5073245;28;19966;-77
2022/05/09 01:34:45;;;;;;;;;;;14.80;67.30;;;;;;5073435;28;20289;-76
2022/05/09 01:37:11;;;;;;;;;;;14.80;67.20;;;;;;5091578;28;20534;-79
2022/05/09 01:39:36;;;;;;;;;;;14.80;67.10;;;;;;5072347;28;20378;-77
2022/05/09 01:42:06;;;;;;;;;;;14.70;67.40;;;;;;5072257;28;19935;-78
2022/05/09 01:44:32;;;;;;;;;;;14.70;67.60;;;;;;5072548;28;19920;-78
2022/05/09 01:49:41;;;;;;;;;;;14.70;67.30;;;;;;5090819;28;19973;-78
2022/05/09 01:52:08;;;;;;;;;;;14.70;67.70;;;;;;5071901;28;20353;-77
2022/05/09 01:54:35;;;;;;;;;;;14.70;67.70;;;;;;5089997;28;19969;-78
2022/05/09 01:57:01;;;;;;;;;;;14.70;67.50;;;;;;5090042;28;19912;-79
2022/05/09 01:59:27;;;;;;;;;;;14.80;67.60;;;;;;5071789;28;19908;-77
2022/05/09 02:01:55;;;;;;;;;;;14.80;67.50;;;;;;5089847;28;20372;-78
2022/05/09 02:04:22;;;;;;;;;;;14.80;67.40;;;;;;5071614;28;19969;-77
2022/05/09 02:06:47;;;;;;;;;;;14.80;67.30;;;;;;5089990;28;19908;-77
2022/05/09 02:09:13;;;;;;;;;;;14.80;67.30;;;;;;5090086;28;19965;-77
2022/05/09 02:11:39;;;;;;;;;;;14.90;67.50;;;;;;5071692;28;19912;-78
2022/05/09 02:14:05;;;;;;;;;;;14.90;67.30;;;;;;5056131;28;20365;-78
2022/05/09 02:16:30;;;;;;;;;;;14.90;67.30;;;;;;5090303;28;19908;-79
2022/05/09 02:18:56;;;;;;;;;;;14.80;67.30;;;;;;5090249;28;19912;-77
2022/05/09 02:21:22;;;;;;;;;;;14.80;67.60;;;;;;5072421;28;20374;-76
2022/05/09 02:23:47;;;;;;;;;;;14.80;67.50;;;;;;5071503;28;19908;-78
2022/05/09 02:26:13;;;;;;;;;;;14.80;67.50;;;;;;5071969;28;19962;-77
2022/05/09 02:28:39;;;;;;;;;;;14.70;67.60;;;;;;5072047;28;20324;-78
2022/05/09 02:31:04;;;;;;;;;;;14.70;67.80;;;;;;5055496;28;19916;-78
2022/05/09 02:33:30;;;;;;;;;;;14.70;67.70;;;;;;5071737;28;19908;-76
2022/05/09 02:35:56;;;;;;;;;;;14.80;67.70;;;;;;5090048;28;20685;-77
2022/05/09 02:38:27;;;;;;;;;;;14.70;68.00;;;;;;5089638;28;19913;-77
2022/05/09 02:40:53;;;;;;;;;;;14.70;68.40;;;;;;5089971;28;19924;-76
2022/05/09 02:43:18;;;;;;;;;;;14.70;68.80;;;;;;5071251;28;20370;-78
2022/05/09 02:45:46;;;;;;;;;;;14.70;68.70;;;;;;5089322;28;20287;-78
2022/05/09 02:48:12;;;;;;;;;;;14.70;68.60;;;;;;5072353;28;19919;-77
2022/05/09 02:50:38;;;;;;;;;;;14.70;68.60;;;;;;5089423;28;19935;-77
2022/05/09 02:53:04;;;;;;;;;;;14.70;68.50;;;;;;5070851;28;20307;-78
2022/05/09 02:55:32;;;;;;;;;;;14.80;69.10;;;;;;5089612;28;19909;-77
2022/05/09 02:58:00;;;;;;;;;;;14.70;69.00;;;;;;5071955;28;19915;-78
2022/05/09 03:00:27;;;;;;;;;;;14.70;69.20;;;;;;5089819;28;19970;-78
2022/05/09 03:05:38;;;;;;;;;;;14.70;69.50;;;;;;5092438;28;19919;-76
2022/05/09 03:08:05;;;;;;;;;;;14.60;69.40;;;;;;5090930;28;19918;-77
2022/05/09 03:10:31;;;;;;;;;;;14.60;69.30;;;;;;5070740;28;20148;-77
2022/05/09 03:12:59;;;;;;;;;;;14.60;69.30;;;;;;5089285;28;19912;-77
2022/05/09 03:15:25;;;;;;;;;;;14.60;69.40;;;;;;5088559;28;19912;-77
2022/05/09 03:17:51;;;;;;;;;;;14.70;69.30;;;;;;5070816;28;19908;-76
2022/05/09 03:20:17;;;;;;;;;;;14.70;69.30;;;;;;5088844;28;19916;-78
2022/05/09 03:22:42;;;;;;;;;;;14.70;69.20;;;;;;5055027;28;19928;-78
2022/05/09 03:25:08;;;;;;;;;;;14.70;69.20;;;;;;5071343;28;20377;-78
2022/05/09 03:27:34;;;;;;;;;;;14.70;69.10;;;;;;5072299;28;20007;-78
2022/05/09 03:29:59;;;;;;;;;;;14.70;69.30;;;;;;5071887;28;19937;-78
2022/05/09 03:32:25;;;;;;;;;;;14.70;69.30;;;;;;5072362;28;19908;-76
2022/05/09 03:34:50;;;;;;;;;;;14.60;69.30;;;;;;5089616;28;19908;-79
2022/05/09 03:37:16;;;;;;;;;;;14.60;69.30;;;;;;5090490;28;19912;-77
2022/05/09 03:39:41;;;;;;;;;;;14.60;69.20;;;;;;5071546;28;19955;-77
2022/05/09 03:42:07;;;;;;;;;;;14.60;69.60;;;;;;5071300;28;19970;-78
2022/05/09 03:44:33;;;;;;;;;;;14.60;69.70;;;;;;5089773;28;20417;-77
2022/05/09 03:46:58;;;;;;;;;;;14.60;69.90;;;;;;5072087;28;19916;-77
2022/05/09 03:49:24;;;;;;;;;;;14.50;70.10;;;;;;5055427;28;19925;-76
2022/05/09 03:51:50;;;;;;;;;;;14.50;70.30;;;;;;5071159;28;20425;-77
2022/05/09 03:54:16;;;;;;;;;;;14.50;70.40;;;;;;5070975;28;19912;-77
2022/05/09 03:56:41;;;;;;;;;;;14.50;70.60;;;;;;5089187;28;19908;-76
2022/05/09 03:59:08;;;;;;;;;;;14.40;71.10;;;;;;5071466;28;19998;-79
2022/05/09 04:01:34;;;;;;;;;;;14.40;70.50;;;;;;5088831;28;19916;-77
2022/05/09 04:04:00;;;;;;;;;;;14.40;70.50;;;;;;5090024;28;19977;-78
2022/05/09 04:06:26;;;;;;;;;;;14.40;70.60;;;;;;5088716;28;20011;-78
2022/05/09 04:08:52;;;;;;;;;;;14.40;70.60;;;;;;5070862;28;20431;-78
2022/05/09 04:11:17;;;;;;;;;;;14.40;70.70;;;;;;5088395;28;19926;-77
2022/05/09 04:13:43;;;;;;;;;;;14.40;70.70;;;;;;5070283;28;19919;-77
2022/05/09 04:18:56;;;;;;;;;;;14.40;70.90;;;;;;5088383;28;19927;-78
2022/05/09 04:21:22;;;;;;;;;;;14.40;70.80;;;;;;5089349;28;19916;-76
2022/05/09 04:23:49;;;;;;;;;;;14.40;70.90;;;;;;5089176;28;20333;-78
2022/05/09 04:26:16;;;;;;;;;;;14.40;70.80;;;;;;5089471;28;19912;-77
2022/05/09 04:28:42;;;;;;;;;;;14.40;70.90;;;;;;5089687;28;20010;-79
2022/05/09 04:31:07;;;;;;;;;;;14.40;71.00;;;;;;5054714;28;20349;-78
2022/05/09 04:33:33;;;;;;;;;;;14.40;71.20;;;;;;5056374;28;19912;-77
2022/05/09 04:35:59;;;;;;;;;;;14.40;71.30;;;;;;5094217;28;19912;-76
2022/05/09 04:38:25;;;;;;;;;;;14.30;71.30;;;;;;5093689;28;20304;-76
2022/05/09 04:40:54;;;;;;;;;;;14.30;71.50;;;;;;5093023;28;19934;-77
2022/05/09 04:43:26;;;;;;;;;;;14.30;71.60;;;;;;5093970;28;19931;-78
2022/05/09 04:45:52;;;;;;;;;;;14.20;71.40;;;;;;5074931;28;20106;-76
2022/05/09 04:48:19;;;;;;;;;;;14.20;71.60;;;;;;5076565;28;19935;-75
2022/05/09 04:50:44;;;;;;;;;;;14.20;71.90;;;;;;5076707;28;19954;-77
2022/05/09 04:53:10;;;;;;;;;;;14.20;72.00;;;;;;5095271;28;19953;-76
2022/05/09 04:55:36;;;;;;;;;;;14.20;72.10;;;;;;5093993;28;19919;-76
2022/05/09 04:58:03;;;;;;;;;;;14.20;72.00;;;;;;5094937;28;19962;-77
2022/05/09 05:00:29;;;;;;;;;;;14.20;72.20;;;;;;5093394;28;20403;-76
2022/05/09 05:02:55;;;;;;;;;;;14.20;72.30;;;;;;5075867;28;19962;-78
2022/05/09 05:05:22;;;;;;;;;;;14.20;72.20;;;;;;5074698;28;19943;-76
2022/05/09 05:07:48;;;;;;;;;;;14.20;72.20;;;;;;5094782;28;19908;-78
2022/05/09 05:10:14;;;;;;;;;;;14.20;72.20;;;;;;5075748;28;20134;-77
2022/05/09 05:12:40;;;;;;;;;;;14.20;72.30;;;;;;5075653;28;20439;-78
2022/05/09 05:15:06;;;;;;;;;;;14.30;72.50;;;;;;5093381;28;19908;-77
2022/05/09 05:17:31;;;;;;;;;;;14.30;72.50;;;;;;5094006;28;19908;-76
2022/05/09 05:19:57;;;;;;;;;;;14.30;72.70;;;;;;5075852;28;19916;-78
2022/05/09 05:22:22;;;;;;;;;;;14.30;72.60;;;;;;5094959;28;19916;-77
2022/05/09 05:24:52;;;;;;;;;;;14.30;72.50;;;;;;5074943;28;19969;-77
2022/05/09 05:27:20;;;;;;;;;;;14.30;72.60;;;;;;5074734;28;19908;-76
2022/05/09 05:29:46;;;;;;;;;;;14.30;72.70;;;;;;5075396;28;19912;-76
2022/05/09 05:32:19;;;;;;;;;;;14.30;72.70;;;;;;5075666;28;19919;-77
2022/05/09 05:34:46;;;;;;;;;;;14.30;72.60;;;;;;5094105;28;19908;-72
2022/05/09 05:37:11;;;;;;;;;;;14.30;72.60;;;;;;5093866;28;19908;-77
2022/05/09 05:39:37;;;;;;;;;;;14.30;72.50;;;;;;5094455;28;19954;-78
2022/05/09 05:42:04;;;;;;;;;;;14.30;72.40;;;;;;5093246;28;19927;-78
2022/05/09 05:44:30;;;;;;;;;;;14.40;72.40;;;;;;5074247;28;19920;-76
2022/05/09 05:46:55;;;;;;;;;;;14.30;72.50;;;;;;5075768;28;20396;-75
2022/05/09 05:49:21;;;;;;;;;;;14.40;72.50;;;;;;5094832;28;19919;-76
2022/05/09 05:51:46;;;;;;;;;;;14.40;72.60;;;;;;5076151;28;20402;-77
2022/05/09 05:54:12;;;;;;;;;;;14.40;72.50;;;;;;5075983;28;19931;-75
2022/05/09 05:56:37;;;;;;;;;;;14.40;72.70;;;;;;5076757;28;20078;-76
2022/05/09 05:59:04;;;;;;;;;;;14.40;72.80;;;;;;5076756;28;19912;-76
2022/05/09 06:01:29;;;;;;;;;;;14.30;72.70;;;;;;5093384;28;20351;-76
2022/05/09 06:03:55;;;;;;;;;;;14.30;72.80;;;;;;5093090;28;19958;-76
2022/05/09 06:06:21;;;;;;;;;;;14.30;72.90;;;;;;5095131;28;19954;-76
2022/05/09 06:08:48;;;;;;;;;;;14.30;72.90;;;;;;5077039;28;19912;-76
2022/05/09 06:11:13;;;;;;;;;;;14.30;72.90;;;;;;5074672;28;20388;-77
2022/05/09 06:13:39;;;;;;;;;;;14.30;73.10;;;;;;5075423;28;19912;-77
2022/05/09 06:16:05;;;;;;;;;;;14.40;73.40;;;;;;5075269;28;19908;-75
2022/05/09 06:18:31;;;;;;;;;;;14.40;73.40;;;;;;5074944;28;19917;-76
2022/05/09 06:20:57;;;;;;;;;;;14.50;73.50;;;;;;5058734;28;20006;-76
2022/05/09 06:23:23;;;;;;;;;;;14.50;73.60;;;;;;5093454;28;20373;-75
2022/05/09 06:25:48;;;;;;;;;;;14.50;73.70;;;;;;5093235;28;19928;-77
2022/05/09 06:28:15;;;;;;;;;;;14.50;73.90;;;;;;5092887;28;20288;-76
2022/05/09 06:30:41;;;;;;;;;;;14.50;73.70;;;;;;5074196;28;19916;-77
2022/05/09 06:33:07;;;;;;;;;;;14.60;73.70;;;;;;5093643;28;19915;-76
2022/05/09 06:35:33;;;;;;;;;;;14.60;73.80;;;;;;5073983;28;19912;-77
2022/05/09 06:38:03;;;;;;;;;;;14.70;73.80;;;;;;5092761;28;19921;-75
2022/05/09 06:40:30;;;;;;;;;;;14.80;73.80;;;;;;5091798;28;19930;-76
2022/05/09 06:42:56;;;;;;;;;;;14.80;73.70;;;;;;5092327;28;19926;-76
2022/05/09 06:45:23;;;;;;;;;;;14.80;73.70;;;;;;5074969;28;19961;-78
2022/05/09 06:47:50;;;;;;;;;;;14.90;73.70;;;;;;5092165;28;19912;-76
2022/05/09 06:50:16;;;;;;;;;;;14.90;73.70;;;;;;5091773;28;19908;-76
2022/05/09 06:52:42;;;;;;;;;;;15.00;73.70;;;;;;5091904;28;20318;-76
2022/05/09 06:55:08;;;;;;;;;;;15.00;73.90;;;;;;5055175;28;19957;-76
2022/05/09 06:57:38;;;;;;;;;;;15.00;74.20;;;;;;5072707;28;19908;-78
2022/05/09 07:00:05;;;;;;;;;;;15.00;74.40;;;;;;5090998;28;19954;-77
2022/05/09 07:02:31;;;;;;;;;;;15.00;74.60;;;;;;5073041;28;19939;-77
2022/05/09 07:04:56;;;;;;;;;;;15.00;75.10;;;;;;5073693;28;20425;-77
2022/05/09 07:07:22;;;;;;;;;;;15.00;74.80;;;;;;5073985;28;19930;-76
2022/05/09 07:09:48;;;;;;;;;;;15.00;74.60;;;;;;5073285;28;19912;-77
2022/05/09 07:12:13;;;;;;;;;;;15.10;74.60;;;;;;5091516;28;19924;-76
2022/05/09 07:14:39;;;;;;;;;;;15.20;74.80;;;;;;5074185;28;20017;-76
2022/05/09 07:17:05;;;;;;;;;;;15.30;74.60;;;;;;5071765;28;19929;-77
2022/05/09 07:19:31;;;;;;;;;;;15.40;74.80;;;;;;5088981;28;20109;-76
2022/05/09 07:21:57;;;;;;;;;;;15.50;74.60;;;;;;5073048;28;20006;-76
2022/05/09 07:24:22;;;;;;;;;;;15.50;74.90;;;;;;5091599;28;19947;-75
2022/05/09 07:26:48;;;;;;;;;;;15.60;74.90;;;;;;5073285;28;19912;-76
2022/05/09 07:29:14;;;;;;;;;;;15.70;74.70;;;;;;5090781;28;19908;-77
2022/05/09 07:31:39;;;;;;;;;;;15.70;74.60;;;;;;5090570;28;19912;-77
2022/05/09 07:34:05;;;;;;;;;;;15.70;74.50;;;;;;5091337;28;19908;-76
2022/05/09 07:36:31;;;;;;;;;;;15.70;74.50;;;;;;5074264;28;19912;-77
2022/05/09 07:38:56;;;;;;;;;;;15.70;74.60;;;;;;5091445;28;19919;-77
2022/05/09 07:41:22;;;;;;;;;;;15.70;74.70;;;;;;5091413;28;19938;-75
2022/05/09 07:43:48;;;;;;;;;;;15.70;74.80;;;;;;5090164;28;19927;-75
2022/05/09 07:46:13;;;;;;;;;;;15.80;74.90;;;;;;5090866;28;20298;-77
2022/05/09 07:48:40;;;;;;;;;;;15.80;74.70;;;;;;5057048;28;19919;-76
2022/05/09 07:51:05;;;;;;;;;;;15.90;74.70;;;;;;5073140;28;19912;-76
2022/05/09 07:53:32;;;;;;;;;;;16.00;74.70;;;;;;5090664;28;19915;-76
2022/05/09 07:55:58;;;;;;;;;;;16.10;74.50;;;;;;5090796;28;19956;-74
2022/05/09 07:58:24;;;;;;;;;;;16.00;74.30;;;;;;5089945;28;19999;-75
2022/05/09 08:00:50;;;;;;;;;;;16.00;74.10;;;;;;5072175;28;19912;-77
2022/05/09 08:03:20;;;;;;;;;;;15.80;74.10;;;;;;5088936;28;20014;-77
2022/05/09 08:05:46;;;;;;;;;;;15.70;74.40;;;;;;5088902;28;19908;-77
2022/05/09 08:08:15;;;;;;;;;;;15.70;74.60;;;;;;5057938;28;19912;-76
2022/05/09 08:10:42;;;;;;;;;;;15.60;74.50;;;;;;5093870;28;19912;-74
2022/05/09 08:13:08;;;;;;;;;;;15.50;74.60;;;;;;5093640;28;19966;-77
2022/05/09 08:15:34;;;;;;;;;;;15.50;74.80;;;;;;5074996;28;19908;-75
2022/05/09 08:18:01;;;;;;;;;;;15.40;75.00;;;;;;5058940;28;19934;-75
2022/05/09 08:20:27;;;;;;;;;;;15.40;74.90;;;;;;5074610;28;19908;-77
2022/05/09 08:23:00;;;;;;;;;;;15.40;75.20;;;;;;5093494;28;19951;-76
2022/05/09 08:25:27;;;;;;;;;;;15.40;75.20;;;;;;5093699;28;19975;-76
2022/05/09 08:27:52;;;;;;;;;;;15.50;75.30;;;;;;5074536;28;20542;-76
2022/05/09 08:30:18;;;;;;;;;;;15.60;75.40;;;;;;5092654;28;19912;-74
2022/05/09 08:32:43;;;;;;;;;;;15.70;75.40;;;;;;5093456;28;19920;-75
2022/05/09 08:35:09;;;;;;;;;;;15.80;75.30;;;;;;5075468;28;19908;-74
2022/05/09 08:37:35;;;;;;;;;;;15.90;75.40;;;;;;5075016;28;20369;-76
2022/05/09 08:40:02;;;;;;;;;;;16.00;75.30;;;;;;5075496;28;19912;-76
2022/05/09 08:42:48;;;;;;;;;;;16.00;75.10;;;;;;5092945;28;20431;-73
2022/05/09 08:45:19;;;;;;;;;;;16.10;75.00;;;;;;5093879;28;19912;-77
2022/05/09 08:48:05;;;;;;;;;;;16.10;75.00;;;;;;5075807;28;19912;-78
2022/05/09 08:50:36;;;;;;;;;;;16.20;75.20;;;;;;5095159;28;19943;-75
2022/05/09 08:53:03;;;;;;;;;;;16.20;75.30;;;;;;5095396;28;20345;-76
2022/05/09 08:55:32;;;;;;;;;;;16.50;75.40;;;;;;5094261;28;19912;-76
2022/05/09 08:58:11;;;;;;;;;;;16.80;75.00;;;;;;5094600;28;19912;-75
2022/05/09 09:00:37;;;;;;;;;;;17.00;74.90;;;;;;5078244;28;19912;-77
2022/05/09 09:03:21;;;;;;;;;;;17.20;74.60;;;;;;5095168;28;19967;-76
2022/05/09 09:05:50;;;;;;;;;;;17.30;74.10;;;;;;5111828;28;20126;-77
2022/05/09 09:08:37;;;;;;;;;;;17.40;73.50;;;;;;5112227;28;19908;-77
2022/05/09 09:11:14;;;;;;;;;;;17.30;73.60;;;;;;5092716;28;19919;-75
2022/05/09 09:13:59;;;;;;;;;;;17.30;73.70;;;;;;5112470;28;19914;-80
2022/05/09 09:16:24;;;;;;;;;;;17.30;73.70;;;;;;5095279;28;20369;-79
2022/05/09 09:19:08;;;;;;;;;;;17.30;73.30;;;;;;5112683;28;19908;-80
2022/05/09 09:21:37;;;;;;;;;;;17.20;73.20;;;;;;5094281;28;20016;-81
2022/05/09 09:24:02;;;;;;;;;;;17.10;73.10;;;;;;5093935;28;19939;-82
2022/05/09 09:26:47;;;;;;;;;;;17.00;73.40;;;;;;5074532;28;19908;-80
2022/05/09 09:29:15;;;;;;;;;;;17.10;73.80;;;;;;5067030;28;19916;-81
2022/05/09 09:31:49;;;;;;;;;;;17.20;73.80;;;;;;5074667;28;19908;-82
2022/05/09 09:34:40;;;;;;;;;;;17.30;73.50;;;;;;5092856;28;19915;-83
2022/05/09 09:37:06;;;;;;;;;;;17.30;73.20;;;;;;5059374;28;19990;-80
2022/05/09 09:39:32;;;;;;;;;;;17.30;73.40;;;;;;5092765;28;20341;-83
2022/05/09 09:41:57;;;;;;;;;;;17.40;73.30;;;;;;5093926;28;20346;-83
2022/05/09 09:44:24;;;;;;;;;;;17.40;73.20;;;;;;5075761;28;19924;-82
2022/05/09 09:47:09;;;;;;;;;;;17.50;73.20;;;;;;5058633;28;19927;-80
2022/05/09 09:49:38;;;;;;;;;;;17.50;73.20;;;;;;5075653;28;19919;-79
2022/05/09 09:52:12;;;;;;;;;;;17.50;73.20;;;;;;5093881;28;19930;-76
2022/05/09 09:54:38;;;;;;;;;;;17.50;73.10;;;;;;5092123;28;19958;-74
2022/05/09 09:57:18;;;;;;;;;;;17.40;72.90;;;;;;5072769;28;19912;-75
2022/05/09 09:59:44;;;;;;;;;;;17.30;72.80;;;;;;5090333;28;19991;-74
2022/05/09 10:02:19;;;;;;;;;;;17.30;73.00;;;;;;5090557;28;20346;-76
2022/05/09 10:04:46;;;;;;;;;;;17.30;73.20;;;;;;5072556;28;20002;-76
2022/05/09 10:07:14;;;;;;;;;;;17.40;73.20;;;;;;5091422;28;19939;-75
2022/05/09 10:09:41;;;;;;;;;;;17.50;73.10;;;;;;5091721;28;19961;-78
2022/05/09 10:12:22;;;;;;;;;;;17.60;72.90;;;;;;5073458;28;20322;-75
2022/05/09 10:14:48;;;;;;;;;;;17.60;72.90;;;;;;5073015;28;19916;-76
2022/05/09 10:17:20;;;;;;;;;;;17.70;72.80;;;;;;5073627;28;19912;-77
2022/05/09 10:19:45;;;;;;;;;;;17.70;72.60;;;;;;5091862;28;19915;-76
2022/05/09 10:25:04;;;;;;;;;;;17.40;72.60;;;;;;5094191;28;19989;-77
2022/05/09 10:27:31;;;;;;;;;;;17.30;72.80;;;;;;5087031;28;20045;-76
2022/05/09 10:30:00;;;;;;;;;;;17.10;73.00;;;;;;5072913;28;19908;-76
2022/05/09 10:32:39;;;;;;;;;;;17.00;73.20;;;;;;5073999;28;20419;-77
2022/05/09 10:35:18;;;;;;;;;;;17.10;73.50;;;;;;5092087;28;19919;-76
2022/05/09 10:37:49;;;;;;;;;;;17.10;73.50;;;;;;5091086;28;19920;-77
2022/05/09 10:40:27;;;;;;;;;;;17.10;73.50;;;;;;5070295;28;20361;-77
2022/05/09 10:42:59;;;;;;;;;;;17.10;73.50;;;;;;5088225;28;20010;-75
2022/05/09 10:45:27;;;;;;;;;;;17.10;73.60;;;;;;5091112;28;19952;-76
2022/05/09 10:47:58;;;;;;;;;;;17.20;73.70;;;;;;5090919;28;19912;-74
2022/05/09 10:50:24;;;;;;;;;;;17.20;73.70;;;;;;5090166;28;20553;-73
2022/05/09 10:52:59;;;;;;;;;;;17.20;73.70;;;;;;5090590;28;20018;-77
2022/05/09 10:55:44;;;;;;;;;;;17.10;73.70;;;;;;5072647;28;20009;-76
2022/05/09 10:58:21;;;;;;;;;;;17.10;73.80;;;;;;5091273;28;19908;-77
2022/05/09 11:00:49;;;;;;;;;;;17.10;74.00;;;;;;5073883;28;19919;-60
2022/05/09 11:03:22;;;;;;;;;;;17.10;74.10;;;;;;5090325;28;19998;-76
2022/05/09 11:06:11;;;;;;;;;;;17.10;74.00;;;;;;5091094;28;19959;-74
2022/05/09 11:08:40;;;;;;;;;;;17.10;73.80;;;;;;5054651;28;19950;-76
2022/05/09 11:11:12;;;;;;;;;;;17.00;74.10;;;;;;5091601;28;19961;-77
2022/05/09 11:14:02;;;;;;;;;;;16.90;74.30;;;;;;5091072;28;19919;-78
2022/05/09 11:16:33;;;;;;;;;;;16.90;74.60;;;;;;5089947;28;20011;-74
2022/05/09 11:19:21;;;;;;;;;;;16.90;74.70;;;;;;5090314;28;19908;-75
2022/05/09 11:22:13;;;;;;;;;;;16.90;75.00;;;;;;5071464;28;19995;-76
2022/05/09 11:24:58;;;;;;;;;;;16.90;75.30;;;;;;5070507;28;20011;-77
2022/05/09 11:27:29;;;;;;;;;;;17.00;76.00;;;;;;5090345;28;20269;-73
2022/05/09 11:29:54;;;;;;;;;;;17.40;76.40;;;;;;5070953;28;19991;-76
2022/05/09 11:32:43;;;;;;;;;;;17.80;75.70;;;;;;5089463;28;20404;-76
2022/05/09 11:35:18;;;;;;;;;;;17.90;75.20;;;;;;5083803;28;19912;-75
2022/05/09 11:38:03;;;;;;;;;;;17.90;75.00;;;;;;5089393;28;19908;-77
2022/05/09 11:40:49;;;;;;;;;;;17.90;74.90;;;;;;5089013;28;19934;-75
2022/05/09 11:43:32;;;;;;;;;;;17.70;74.90;;;;;;5088873;28;19920;-74
2022/05/09 11:46:09;;;;;;;;;;;17.60;75.20;;;;;;5089276;28;19919;-76
2022/05/09 11:48:40;;;;;;;;;;;17.40;75.60;;;;;;5089365;28;20004;-74
2022/05/09 11:51:15;;;;;;;;;;;17.40;75.90;;;;;;5089317;28;20318;-77
2022/05/09 11:53:42;;;;;;;;;;;17.30;76.10;;;;;;5092413;28;19912;-78
2022/05/09 11:56:08;;;;;;;;;;;17.20;76.50;;;;;;5089922;28;20013;-76
2022/05/09 11:58:36;;;;;;;;;;;17.20;76.80;;;;;;5071730;28;19908;-78
2022/05/09 12:01:02;;;;;;;;;;;17.20;77.00;;;;;;5088883;28;19916;-75
2022/05/09 12:03:40;;;;;;;;;;;17.30;76.90;;;;;;5089129;28;19912;-78
2022/05/09 12:06:07;;;;;;;;;;;17.30;77.00;;;;;;5071322;28;19909;-78
2022/05/09 12:08:42;;;;;;;;;;;17.30;77.10;;;;;;5088943;28;20006;-77
2022/05/09 12:11:18;;;;;;;;;;;17.30;77.40;;;;;;5071194;28;19907;-75
2022/05/09 12:13:43;;;;;;;;;;;17.20;77.30;;;;;;5088972;28;19908;-75
2022/05/09 12:16:31;;;;;;;;;;;17.20;77.60;;;;;;5089285;28;19969;-76
2022/05/09 12:19:00;;;;;;;;;;;17.10;77.60;;;;;;5087265;28;19926;-78
2022/05/09 12:21:31;;;;;;;;;;;16.90;77.80;;;;;;5090175;28;20002;-77
2022/05/09 12:24:09;;;;;;;;;;;16.80;78.20;;;;;;5072980;28;19916;-76
2022/05/09 12:26:36;;;;;;;;;;;16.70;78.50;;;;;;5072834;28;20350;-76
2022/05/09 12:29:28;;;;;;;;;;;16.70;79.20;;;;;;5071798;28;20006;-74
2022/05/09 12:31:59;;;;;;;;;;;16.80;79.50;;;;;;5086690;28;19915;-76
2022/05/09 12:34:27;;;;;;;;;;;16.90;79.50;;;;;;5088590;28;19912;-75
2022/05/09 12:36:53;;;;;;;;;;;17.00;79.40;;;;;;5071629;28;19920;-75
2022/05/09 12:39:25;;;;;;;;;;;17.10;79.30;;;;;;5071053;28;19909;-76
2022/05/09 12:41:56;;;;;;;;;;;17.20;79.40;;;;;;5071024;28;19915;-76
2022/05/09 12:44:24;;;;;;;;;;;17.20;79.40;;;;;;5088662;28;20014;-75
2022/05/09 12:46:51;;;;;;;;;;;17.20;79.80;;;;;;5088610;28;19957;-77
2022/05/09 12:49:19;;;;;;;;;;;17.30;79.80;;;;;;5070299;28;20015;-77
2022/05/09 12:51:49;;;;;;;;;;;17.30;80.00;;;;;;5071126;28;19931;-75
2022/05/09 12:54:17;;;;;;;;;;;17.40;79.70;;;;;;5090653;28;19912;-76
2022/05/09 12:56:47;;;;;;;;;;;17.30;79.60;;;;;;5092536;28;20376;-76
2022/05/09 12:59:14;;;;;;;;;;;17.30;80.20;;;;;;5092408;28;20358;-75
2022/05/09 13:01:43;;;;;;;;;;;17.40;80.40;;;;;;5092480;28;20296;-75
2022/05/09 13:04:21;;;;;;;;;;;17.70;80.40;;;;;;5092400;28;19916;-76
2022/05/09 13:06:51;;;;;;;;;;;17.80;79.80;;;;;;5092263;28;19908;-77
2022/05/09 13:09:18;;;;;;;;;;;17.90;79.50;;;;;;5091972;28;19909;-77
2022/05/09 13:11:48;;;;;;;;;;;17.90;79.40;;;;;;5092238;28;19908;-59
2022/05/09 13:14:19;;;;;;;;;;;18.10;79.50;;;;;;5091804;28;19931;-74
2022/05/09 13:16:58;;;;;;;;;;;18.30;79.50;;;;;;5092088;28;19909;-73
2022/05/09 13:19:25;;;;;;;;;;;18.60;79.00;;;;;;5091785;28;19947;-75
2022/05/09 13:21:51;;;;;;;;;;;18.80;78.60;;;;;;5091490;28;19912;-75
2022/05/09 13:24:21;;;;;;;;;;;18.80;78.50;;;;;;5091185;28;19908;-75
2022/05/09 13:26:49;;;;;;;;;;;18.90;77.70;;;;;;5091104;28;19909;-73
2022/05/09 13:29:41;;;;;;;;;;;18.80;77.30;;;;;;5092218;28;19954;-75
2022/05/09 13:32:07;;;;;;;;;;;18.70;77.20;;;;;;5089327;28;19956;-76
2022/05/09 13:34:33;;;;;;;;;;;18.70;77.70;;;;;;5073337;28;19916;-73
2022/05/09 13:37:00;;;;;;;;;;;18.70;77.30;;;;;;5072757;28;20400;-74
2022/05/09 13:39:37;;;;;;;;;;;18.70;77.00;;;;;;5090248;28;19920;-73
2022/05/09 13:42:07;;;;;;;;;;;18.60;76.70;;;;;;5090878;28;19999;-74
2022/05/09 13:44:33;;;;;;;;;;;18.50;76.70;;;;;;5090717;28;19924;-74
2022/05/09 13:46:59;;;;;;;;;;;18.40;77.00;;;;;;5071685;28;19912;-74
2022/05/09 13:49:25;;;;;;;;;;;18.50;77.20;;;;;;5089853;28;19928;-74
2022/05/09 13:52:14;;;;;;;;;;;18.50;77.20;;;;;;5071629;28;20202;-74
2022/05/09 13:54:46;;;;;;;;;;;18.50;76.90;;;;;;5070709;28;20027;-75
2022/05/09 13:57:17;;;;;;;;;;;18.50;76.90;;;;;;5089451;28;19916;-74
2022/05/09 13:59:43;;;;;;;;;;;18.40;76.90;;;;;;5089567;28;19962;-73
2022/05/09 14:02:11;;;;;;;;;;;18.30;77.20;;;;;;5089593;28;19924;-76
2022/05/09 14:04:38;;;;;;;;;;;18.20;77.20;;;;;;5090477;28;19909;-76
2022/05/09 14:07:37;;;;;;;;;;;18.10;77.40;;;;;;5072377;28;20138;-76
2022/05/09 14:09:49;;;;;;;;;;;18.10;77.80;;;;;;5090839;28;19980;-74
2022/05/09 14:12:20;;;;;;;;;;;18.20;78.10;;;;;;5090428;28;20003;-74
2022/05/09 14:14:59;;;;;;;;;;;18.30;77.70;;;;;;5072585;28;19912;-73
2022/05/09 14:17:28;;;;;;;;;;;18.30;77.60;;;;;;5090975;28;20337;-74
2022/05/09 14:19:56;;;;;;;;;;;18.20;77.90;;;;;;5089575;28;20269;-75
2022/05/09 14:22:23;;;;;;;;;;;18.10;78.30;;;;;;5090104;28;19992;-73
2022/05/09 14:30:18;;;;;;;;;;;17.70;79.10;;;;;;5090356;28;19915;-75
2022/05/09 14:32:49;;;;;;;;;;;17.50;79.70;;;;;;5071971;28;19909;-74
2022/05/09 14:35:34;;;;;;;;;;;17.40;80.20;;;;;;5089993;28;19912;-74
2022/05/09 14:38:00;;;;;;;;;;;17.40;80.50;;;;;;5071412;28;19958;-76
2022/05/09 14:40:27;;;;;;;;;;;17.30;80.60;;;;;;5090585;28;20266;-74
2022/05/09 14:43:00;;;;;;;;;;;17.20;80.80;;;;;;5090069;28;19932;-74